createdAt,value
2023-06-07T00:02:10.280Z,9.88
2023-06-07T00:04:40.737Z,9.13
2023-06-07T00:07:08.748Z,10.40
2023-06-07T00:09:36.792Z,9.32
2023-06-07T00:12:04.444Z,10.25
2023-06-07T00:14:31.659Z,9.75
2023-06-07T00:16:59.445Z,10.68
2023-06-07T00:19:26.755Z,9.95
2023-06-07T00:21:54.049Z,9.07
2023-06-07T00:24:21.948Z,9.50
2023-06-07T00:26:49.603Z,9.98
2023-06-07T00:29:16.872Z,10.60
2023-06-07T00:31:44.191Z,9.52
2023-06-07T00:34:11.337Z,10.40
2023-06-07T00:36:39.157Z,9.88
2023-06-07T00:39:06.152Z,10.48
2023-06-07T00:41:33.609Z,10.35
2023-06-07T00:44:03.264Z,10.45
2023-06-07T00:46:31.950Z,10.57
2023-06-07T00:49:00.086Z,10.25
2023-06-07T00:51:31.289Z,9.80
2023-06-07T00:54:05.263Z,10.48
2023-06-07T00:56:33.031Z,10.02
2023-06-07T00:59:00.363Z,10.82
2023-06-07T01:01:28.604Z,10.80
2023-06-07T01:03:56.345Z,10.50
2023-06-07T01:06:23.715Z,10.18
2023-06-07T01:08:54.396Z,10.23
2023-06-07T01:11:22.434Z,10.32
2023-06-07T01:13:50.272Z,10.82
2023-06-07T01:16:17.723Z,10.35
2023-06-07T01:18:46.740Z,10.13
2023-06-07T01:21:16.231Z,11.00
2023-06-07T01:23:43.371Z,11.05
2023-06-07T01:26:10.941Z,10.70
2023-06-07T01:28:43.271Z,10.05
2023-06-07T01:31:11.688Z,9.77
2023-06-07T01:33:39.250Z,10.27
2023-06-07T01:36:08.046Z,10.38
2023-06-07T01:38:35.560Z,10.70
2023-06-07T01:41:03.193Z,10.45
2023-06-07T01:43:31.292Z,10.57
2023-06-07T01:45:59.833Z,10.70
2023-06-07T01:48:27.454Z,9.85
2023-06-07T01:50:54.395Z,10.57
2023-06-07T01:53:21.383Z,9.68
2023-06-07T01:56:05.308Z,8.90
2023-06-07T01:59:04.892Z,10.40
2023-06-07T02:02:00.916Z,9.27
2023-06-07T02:04:29.710Z,9.50
2023-06-07T02:07:03.814Z,9.38
2023-06-07T02:09:37.053Z,9.38
2023-06-07T02:12:07.391Z,9.43
2023-06-07T02:14:34.510Z,9.68
2023-06-07T02:17:01.565Z,8.73
2023-06-07T02:19:29.622Z,8.90
2023-06-07T02:21:56.587Z,9.35
2023-06-07T02:24:24.019Z,9.25
2023-06-07T02:26:51.903Z,9.02
2023-06-07T02:29:18.855Z,8.10
2023-06-07T02:31:47.510Z,8.57
2023-06-07T02:34:15.181Z,8.00
2023-06-07T02:36:42.201Z,8.18
2023-06-07T02:39:12.611Z,8.13
2023-06-07T02:41:39.648Z,7.60
2023-06-07T02:44:06.562Z,8.18
2023-06-07T02:46:33.529Z,8.10
2023-06-07T02:49:00.668Z,7.80
2023-06-07T02:51:27.693Z,8.20
2023-06-07T02:53:55.806Z,8.88
2023-06-07T02:56:24.501Z,8.27
2023-06-07T02:58:51.521Z,8.23
2023-06-07T03:01:18.892Z,8.32
2023-06-07T03:03:45.892Z,8.13
2023-06-07T03:06:13.002Z,7.95
2023-06-07T03:08:40.026Z,7.57
2023-06-07T03:11:07.430Z,8.27
2023-06-07T03:13:34.361Z,7.90
2023-06-07T03:16:01.322Z,8.07
2023-06-07T03:18:28.337Z,8.13
2023-06-07T03:20:55.448Z,7.70
2023-06-07T03:23:22.418Z,8.80
2023-06-07T03:25:50.018Z,8.70
2023-06-07T03:28:17.290Z,7.95
2023-06-07T03:30:44.330Z,7.95
2023-06-07T03:33:11.318Z,7.68
2023-06-07T03:35:39.691Z,8.05
2023-06-07T03:38:07.715Z,7.70
2023-06-07T03:40:34.647Z,7.97
2023-06-07T03:43:02.708Z,7.88
2023-06-07T03:45:30.194Z,7.30
2023-06-07T03:47:58.257Z,7.38
2023-06-07T03:50:25.483Z,8.13
2023-06-07T03:52:52.585Z,8.07
2023-06-07T03:55:21.161Z,7.68
2023-06-07T03:57:51.160Z,7.85
2023-06-07T04:00:18.953Z,8.27
2023-06-07T04:02:46.862Z,7.97
2023-06-07T04:05:14.186Z,7.50
2023-06-07T04:07:41.880Z,7.22
2023-06-07T04:10:09.158Z,7.53
2023-06-07T04:12:36.201Z,7.28
2023-06-07T04:15:03.464Z,6.28
2023-06-07T04:17:30.886Z,7.65
2023-06-07T04:19:58.319Z,7.57
2023-06-07T04:22:25.776Z,7.50
2023-06-07T04:24:53.053Z,7.03
2023-06-07T04:27:20.245Z,7.20
2023-06-07T04:29:50.528Z,7.22
2023-06-07T04:32:20.442Z,7.03
2023-06-07T04:34:48.781Z,7.10
2023-06-07T04:37:17.429Z,6.78
2023-06-07T04:39:46.256Z,7.28
2023-06-07T04:42:14.161Z,7.22
2023-06-07T04:44:44.147Z,6.70
2023-06-07T04:47:13.332Z,8.20
2023-06-07T04:49:41.903Z,7.65
2023-06-07T04:52:09.320Z,7.78
2023-06-07T04:54:38.927Z,6.25
2023-06-07T04:57:10.119Z,6.55
2023-06-07T04:59:43.692Z,7.10
2023-06-07T05:02:11.686Z,6.75
2023-06-07T05:04:39.544Z,6.70
2023-06-07T05:07:10.112Z,7.22
2023-06-07T05:09:46.953Z,7.60
2023-06-07T05:12:14.225Z,7.40
2023-06-07T05:14:42.090Z,7.75
2023-06-07T05:17:09.167Z,8.40
2023-06-07T05:19:36.241Z,6.80
2023-06-07T05:22:03.304Z,7.30
2023-06-07T05:24:32.504Z,7.85
2023-06-07T05:26:59.947Z,6.82
2023-06-07T05:29:27.445Z,6.75
2023-06-07T05:31:54.745Z,7.20
2023-06-07T05:34:25.136Z,6.95
2023-06-07T05:36:52.593Z,7.28
2023-06-07T05:39:19.646Z,7.95
2023-06-07T05:41:46.703Z,6.85
2023-06-07T05:44:13.824Z,7.47
2023-06-07T05:46:41.228Z,8.05
2023-06-07T05:49:08.261Z,7.40
2023-06-07T05:51:35.885Z,7.65
2023-06-07T05:54:03.562Z,7.60
2023-06-07T05:56:30.517Z,6.43
2023-06-07T05:58:57.771Z,7.10
2023-06-07T06:01:24.795Z,7.32
2023-06-07T06:03:51.825Z,6.88
2023-06-07T06:06:19.761Z,6.63
2023-06-07T06:08:47.228Z,7.53
2023-06-07T06:11:15.331Z,6.85
2023-06-07T06:13:44.337Z,7.10
2023-06-07T06:16:12.884Z,6.95
2023-06-07T06:18:44.215Z,6.90
2023-06-07T06:21:11.385Z,6.72
2023-06-07T06:23:38.419Z,7.18
2023-06-07T06:26:05.850Z,7.43
2023-06-07T06:28:32.791Z,6.75
2023-06-07T06:31:02.654Z,6.80
2023-06-07T06:33:29.799Z,6.50
2023-06-07T06:35:57.506Z,7.18
2023-06-07T06:38:24.544Z,6.70
2023-06-07T06:40:51.493Z,7.43
2023-06-07T06:43:18.522Z,7.22
2023-06-07T06:45:45.658Z,7.25
2023-06-07T06:48:13.677Z,6.32
2023-06-07T06:50:40.706Z,6.47
2023-06-07T06:53:07.693Z,7.18
2023-06-07T06:55:35.966Z,6.65
2023-06-07T06:58:02.911Z,7.32
2023-06-07T07:00:32.932Z,6.60
2023-06-07T07:03:00.030Z,6.78
2023-06-07T07:05:30.182Z,6.80
2023-06-07T07:07:57.901Z,6.90
2023-06-07T07:10:24.983Z,6.95
2023-06-07T07:12:51.927Z,6.82
2023-06-07T07:15:19.003Z,6.30
2023-06-07T07:17:48.902Z,7.07
2023-06-07T07:20:18.508Z,5.60
2023-06-07T07:22:47.561Z,6.30
2023-06-07T07:25:19.151Z,6.45
2023-06-07T07:27:46.191Z,6.00
2023-06-07T07:30:13.474Z,6.38
2023-06-07T07:32:43.366Z,5.72
2023-06-07T07:35:10.311Z,4.93
2023-06-07T07:37:39.452Z,4.95
2023-06-07T07:40:10.273Z,5.10
2023-06-07T07:42:38.552Z,5.07
2023-06-07T07:45:06.484Z,5.35
2023-06-07T07:47:34.397Z,5.10
2023-06-07T07:50:02.232Z,5.43
2023-06-07T07:52:29.337Z,5.50
2023-06-07T07:54:56.567Z,5.70
2023-06-07T07:57:23.575Z,5.47
2023-06-07T07:59:50.534Z,5.28
2023-06-07T08:02:17.751Z,5.28
2023-06-07T08:04:44.915Z,5.45
2023-06-07T08:07:16.656Z,5.15
2023-06-07T08:09:43.752Z,5.03
2023-06-07T08:12:12.567Z,5.10
2023-06-07T08:14:39.525Z,5.10
2023-06-07T08:17:06.636Z,5.13
2023-06-07T08:19:34.638Z,4.70
2023-06-07T08:22:02.187Z,4.63
2023-06-07T08:24:29.093Z,4.60
2023-06-07T08:26:56.115Z,4.75
2023-06-07T08:29:23.387Z,5.25
2023-06-07T08:31:50.629Z,5.65
2023-06-07T08:34:17.974Z,5.97
2023-06-07T08:36:45.676Z,5.50
2023-06-07T08:39:12.929Z,5.30
2023-06-07T08:41:40.561Z,5.53
2023-06-07T08:44:07.590Z,5.28
2023-06-07T08:46:35.302Z,5.55
2023-06-07T08:49:04.245Z,5.25
2023-06-07T08:51:37.485Z,4.78
2023-06-07T08:54:05.960Z,5.28
2023-06-07T08:56:33.944Z,5.35
2023-06-07T08:59:04.212Z,5.60
2023-06-07T09:01:32.492Z,5.30
2023-06-07T09:04:00.039Z,4.60
2023-06-07T09:06:28.169Z,4.80
2023-06-07T09:08:55.169Z,4.80
2023-06-07T09:11:22.278Z,4.90
2023-06-07T09:13:50.602Z,5.05
2023-06-07T09:16:18.448Z,4.95
2023-06-07T09:18:56.770Z,5.43
2023-06-07T09:21:29.007Z,5.13
2023-06-07T09:24:00.403Z,5.82
2023-06-07T09:26:40.713Z,5.40
2023-06-07T09:29:11.670Z,5.80
2023-06-07T09:31:39.235Z,5.50
2023-06-07T09:34:27.380Z,5.05
2023-06-07T09:37:00.296Z,5.20
2023-06-07T09:39:34.148Z,5.97
2023-06-07T09:42:01.156Z,5.35
2023-06-07T09:44:30.842Z,7.03
2023-06-07T09:47:04.215Z,5.32
2023-06-07T09:49:36.667Z,5.88
2023-06-07T09:52:06.425Z,5.55
2023-06-07T09:54:54.810Z,5.93
2023-06-07T09:57:27.598Z,5.88
2023-06-07T10:00:16.622Z,5.40
2023-06-07T10:02:45.793Z,5.72
2023-06-07T10:05:14.841Z,5.13
2023-06-07T10:07:46.134Z,5.68
2023-06-07T10:10:16.147Z,5.80
2023-06-07T10:12:46.659Z,5.28
2023-06-07T10:15:22.776Z,5.85
2023-06-07T10:18:23.352Z,5.70
2023-06-07T10:20:58.333Z,6.00
2023-06-07T10:23:54.759Z,5.70
2023-06-07T10:26:40.401Z,5.57
2023-06-07T10:29:21.615Z,6.03
2023-06-07T10:32:02.144Z,5.75
2023-06-07T10:34:31.717Z,5.45
2023-06-07T10:37:00.607Z,5.68
2023-06-07T10:39:27.578Z,6.00
2023-06-07T10:41:55.263Z,5.22
2023-06-07T10:44:22.325Z,5.30
2023-06-07T10:46:52.056Z,5.63
2023-06-07T10:49:38.753Z,5.38
2023-06-07T10:52:07.574Z,6.10
2023-06-07T10:54:36.337Z,5.50
2023-06-07T10:57:04.316Z,5.60
2023-06-07T10:59:32.060Z,5.70
2023-06-07T11:02:22.598Z,5.57
2023-06-07T11:04:51.541Z,6.57
2023-06-07T11:07:23.919Z,5.68
2023-06-07T11:12:42.099Z,5.65
2023-06-07T11:15:19.102Z,5.65
2023-06-07T11:18:01.362Z,5.68
2023-06-07T11:20:40.214Z,5.53
2023-06-07T11:23:29.643Z,5.68
2023-06-07T11:26:00.172Z,5.53
2023-06-07T11:28:30.138Z,5.82
2023-06-07T11:30:57.777Z,5.68
2023-06-07T11:33:25.003Z,5.32
2023-06-07T11:35:56.658Z,5.53
2023-06-07T11:38:25.646Z,6.67
2023-06-07T11:40:52.707Z,5.45
2023-06-07T11:43:24.937Z,5.25
2023-06-07T11:45:55.913Z,5.65
2023-06-07T11:48:28.300Z,5.45
2023-06-07T11:50:55.693Z,5.78
2023-06-07T11:53:23.169Z,5.55
2023-06-07T11:55:50.407Z,5.82
2023-06-07T11:58:17.442Z,5.45
2023-06-07T12:00:45.439Z,5.43
2023-06-07T12:03:14.149Z,5.05
2023-06-07T12:05:41.529Z,5.78
2023-06-07T12:08:18.190Z,5.07
2023-06-07T12:10:54.304Z,5.72
2023-06-07T12:13:22.362Z,5.13
2023-06-07T12:15:59.788Z,5.40
2023-06-07T12:18:36.903Z,5.57
2023-06-07T12:21:12.736Z,5.65
2023-06-07T12:23:53.943Z,5.53
2023-06-07T12:26:27.632Z,6.00
2023-06-07T12:28:56.022Z,6.22
2023-06-07T12:31:28.063Z,5.65
2023-06-07T12:34:00.566Z,5.78
2023-06-07T12:36:35.802Z,6.40
2023-06-07T12:39:10.125Z,6.68
2023-06-07T12:41:41.433Z,6.38
2023-06-07T12:44:11.530Z,5.85
2023-06-07T12:46:38.669Z,6.15
2023-06-07T12:49:05.794Z,5.90
2023-06-07T12:51:34.769Z,5.95
2023-06-07T12:54:02.367Z,6.70
2023-06-07T12:56:30.713Z,5.68
2023-06-07T12:58:58.052Z,5.85
2023-06-07T13:01:25.551Z,6.18
2023-06-07T13:03:53.260Z,5.80
2023-06-07T13:06:21.894Z,6.45
2023-06-07T13:09:01.730Z,6.32
2023-06-07T13:11:28.881Z,5.50
2023-06-07T13:13:55.928Z,6.53
2023-06-07T13:16:23.940Z,6.43
2023-06-07T13:18:51.116Z,5.60
2023-06-07T13:21:19.124Z,5.93
2023-06-07T13:23:46.673Z,5.78
2023-06-07T13:26:14.604Z,5.20
2023-06-07T13:28:45.323Z,5.38
2023-06-07T13:31:13.296Z,5.03
2023-06-07T13:33:41.580Z,4.90
2023-06-07T13:36:08.883Z,5.03
2023-06-07T13:38:37.205Z,5.25
2023-06-07T13:41:04.218Z,5.43
2023-06-07T13:43:51.210Z,5.47
2023-06-07T13:46:18.237Z,5.63
2023-06-07T13:48:45.355Z,5.15
2023-06-07T13:51:13.648Z,5.28
2023-06-07T13:53:44.899Z,4.75
2023-06-07T13:56:12.001Z,5.85
2023-06-07T13:58:39.165Z,5.20
2023-06-07T14:01:07.341Z,5.30
2023-06-07T14:03:39.854Z,4.68
2023-06-07T14:06:07.438Z,5.13
2023-06-07T14:08:34.966Z,5.45
2023-06-07T14:11:02.140Z,5.40
2023-06-07T14:13:32.581Z,5.10
2023-06-07T14:15:59.694Z,4.72
2023-06-07T14:18:27.086Z,5.18
2023-06-07T14:20:54.257Z,5.10
2023-06-07T14:23:21.653Z,5.55
2023-06-07T14:25:48.711Z,5.43
2023-06-07T14:28:17.577Z,5.25
2023-06-07T14:30:47.050Z,5.20
2023-06-07T14:33:14.672Z,5.13
2023-06-07T14:35:41.912Z,4.70
2023-06-07T14:38:08.862Z,6.10
2023-06-07T14:40:35.873Z,5.55
2023-06-07T14:43:02.928Z,5.13
2023-06-07T14:45:30.652Z,4.88
2023-06-07T14:47:57.803Z,4.85
2023-06-07T14:50:24.870Z,5.25
2023-06-07T14:52:51.786Z,4.95
2023-06-07T14:55:18.854Z,5.32
2023-06-07T14:57:46.419Z,5.10
2023-06-07T15:00:14.343Z,5.13
2023-06-07T15:02:41.322Z,4.82
2023-06-07T15:05:09.105Z,4.57
2023-06-07T15:07:36.379Z,4.63
2023-06-07T15:10:03.921Z,4.53
2023-06-07T15:12:31.263Z,3.97
2023-06-07T15:14:58.407Z,4.50
2023-06-07T15:17:25.434Z,4.30
2023-06-07T15:19:52.589Z,4.90
2023-06-07T15:22:20.054Z,4.65
2023-06-07T15:24:47.071Z,3.95
2023-06-07T15:27:14.011Z,4.68
2023-06-07T15:29:41.027Z,4.80
2023-06-07T15:32:08.390Z,4.85
2023-06-07T15:34:35.786Z,4.22
2023-06-07T15:37:02.881Z,4.07
2023-06-07T15:39:29.860Z,4.18
2023-06-07T15:41:56.941Z,3.92
2023-06-07T15:44:24.605Z,4.00
2023-06-07T15:46:51.643Z,4.13
2023-06-07T15:49:19.337Z,4.45
2023-06-07T15:51:46.534Z,4.18
2023-06-07T15:54:13.967Z,4.80
2023-06-07T15:56:44.168Z,5.03
2023-06-07T15:59:11.953Z,5.35
2023-06-07T16:01:39.530Z,4.70
2023-06-07T16:04:07.162Z,5.25
2023-06-07T16:06:36.259Z,4.50
2023-06-07T16:09:09.181Z,4.70
2023-06-07T16:11:41.591Z,4.80
2023-06-07T16:14:11.847Z,4.78
2023-06-07T16:16:40.349Z,4.88
2023-06-07T16:19:10.350Z,4.82
2023-06-07T16:21:41.014Z,4.97
2023-06-07T16:24:08.864Z,5.40
2023-06-07T16:26:36.162Z,4.45
2023-06-07T16:29:05.065Z,4.63
2023-06-07T16:31:33.386Z,4.43
2023-06-07T16:34:00.452Z,4.55
2023-06-07T16:36:27.428Z,4.70
2023-06-07T16:38:55.249Z,5.10
2023-06-07T16:41:27.211Z,4.97
2023-06-07T16:43:55.885Z,4.97
2023-06-07T16:46:22.987Z,4.88
2023-06-07T16:48:49.963Z,5.00
2023-06-07T16:51:17.367Z,4.65
2023-06-07T16:53:44.864Z,4.95
2023-06-07T16:56:12.055Z,5.40
2023-06-07T16:58:39.076Z,5.43
2023-06-07T17:01:06.478Z,5.45
2023-06-07T17:03:33.837Z,5.25
2023-06-07T17:06:00.996Z,5.03
2023-06-07T17:08:27.919Z,5.30
2023-06-07T17:10:55.403Z,4.82
2023-06-07T17:13:22.394Z,5.40
2023-06-07T17:15:50.657Z,5.22
2023-06-07T17:18:19.253Z,5.72
2023-06-07T17:20:48.383Z,4.97
2023-06-07T17:23:16.499Z,5.00
2023-06-07T17:25:43.497Z,5.50
2023-06-07T17:28:10.678Z,5.78
2023-06-07T17:30:41.546Z,6.07
2023-06-07T17:33:08.507Z,5.63
2023-06-07T17:35:35.659Z,5.68
2023-06-07T17:38:02.754Z,5.80
2023-06-07T17:40:29.775Z,6.10
2023-06-07T17:42:58.565Z,5.70
2023-06-07T17:45:27.246Z,6.60
2023-06-07T17:47:55.549Z,6.03
2023-06-07T17:50:37.342Z,5.88
2023-06-07T17:53:13.483Z,5.68
2023-06-07T17:55:42.246Z,6.32
2023-06-07T17:58:09.178Z,6.07
2023-06-07T18:00:36.425Z,6.20
2023-06-07T18:03:05.031Z,5.80
2023-06-07T18:05:32.036Z,5.82
2023-06-07T18:07:59.021Z,6.68
2023-06-07T18:10:26.022Z,6.18
2023-06-07T18:12:53.034Z,5.93
2023-06-07T18:15:20.027Z,6.20
2023-06-07T18:17:47.278Z,6.28
2023-06-07T18:20:14.484Z,6.68
2023-06-07T18:22:41.716Z,6.50
2023-06-07T18:25:13.076Z,6.45
2023-06-07T18:27:40.586Z,7.35
2023-06-07T18:30:11.491Z,6.50
2023-06-07T18:32:38.666Z,7.53
2023-06-07T18:35:06.038Z,6.78
2023-06-07T18:37:33.563Z,6.85
2023-06-07T18:40:05.750Z,6.68
2023-06-07T18:42:33.219Z,7.63
2023-06-07T18:45:00.932Z,6.88
2023-06-07T18:47:28.156Z,7.40
2023-06-07T18:49:55.206Z,7.47
2023-06-07T18:52:22.627Z,7.57
2023-06-07T18:54:50.205Z,7.55
2023-06-07T18:57:17.436Z,7.32
2023-06-07T18:59:44.407Z,7.60
2023-06-07T19:02:11.471Z,8.00
2023-06-07T19:04:38.676Z,7.30
2023-06-07T19:07:05.982Z,7.70
2023-06-07T19:09:33.585Z,8.10
2023-06-07T19:12:00.627Z,7.70
2023-06-07T19:14:29.522Z,8.07
2023-06-07T19:16:58.184Z,8.52
2023-06-07T19:19:25.398Z,7.55
2023-06-07T19:21:53.562Z,7.40
2023-06-07T19:24:20.641Z,7.65
2023-06-07T19:26:48.059Z,8.15
2023-06-07T19:29:14.992Z,7.40
2023-06-07T19:31:42.149Z,9.07
2023-06-07T19:34:12.277Z,7.63
2023-06-07T19:36:39.332Z,8.77
2023-06-07T19:39:06.505Z,7.70
2023-06-07T19:41:33.500Z,8.15
2023-06-07T19:44:00.481Z,8.48
2023-06-07T19:46:27.683Z,8.45
2023-06-07T19:48:55.227Z,9.27
2023-06-07T19:51:22.841Z,8.70
2023-06-07T19:53:52.552Z,9.52
2023-06-07T19:56:19.441Z,8.77
2023-06-07T19:58:46.532Z,9.02
2023-06-07T20:01:13.567Z,8.27
2023-06-07T20:03:40.624Z,8.50
2023-06-07T20:06:10.428Z,8.95
2023-06-07T20:08:37.368Z,9.57
2023-06-07T20:11:04.478Z,8.52
2023-06-07T20:13:31.530Z,9.05
2023-06-07T20:15:58.654Z,9.02
2023-06-07T20:18:26.433Z,10.10
2023-06-07T20:20:53.408Z,8.80
2023-06-07T20:23:20.854Z,8.82
2023-06-07T20:25:47.815Z,8.05
2023-06-07T20:28:14.739Z,9.27
2023-06-07T20:30:41.866Z,8.93
2023-06-07T20:33:08.895Z,9.00
2023-06-07T20:35:35.989Z,8.60
2023-06-07T20:38:02.992Z,8.60
2023-06-07T20:40:30.331Z,9.30
2023-06-07T20:42:57.399Z,9.50
2023-06-07T20:45:25.129Z,8.98
2023-06-07T20:47:52.298Z,8.45
2023-06-07T20:50:19.387Z,9.52
2023-06-07T20:52:46.806Z,9.40
2023-06-07T20:55:13.932Z,8.85
2023-06-07T20:57:41.237Z,9.38
2023-06-07T21:00:09.999Z,9.38
2023-06-07T21:02:38.120Z,9.20
2023-06-07T21:05:05.889Z,9.13
2023-06-07T21:07:33.242Z,9.45
2023-06-07T21:10:00.277Z,9.13
2023-06-07T21:12:27.346Z,9.40
2023-06-07T21:14:56.634Z,8.93
2023-06-07T21:17:23.742Z,9.07
2023-06-07T21:19:52.327Z,9.48
2023-06-07T21:22:19.454Z,8.77
2023-06-07T21:24:46.493Z,9.48
2023-06-07T21:27:13.595Z,10.48
2023-06-07T21:29:41.120Z,9.43
2023-06-07T21:32:09.117Z,8.95
2023-06-07T21:34:36.256Z,9.23
2023-06-07T21:37:03.297Z,9.40
2023-06-07T21:39:30.392Z,8.90
2023-06-07T21:41:58.447Z,8.52
2023-06-07T21:44:25.584Z,9.40
2023-06-07T21:46:52.730Z,8.80
2023-06-07T21:49:28.920Z,9.10
2023-06-07T21:51:55.989Z,9.68
2023-06-07T21:54:23.393Z,8.85
2023-06-07T21:56:50.587Z,8.60
2023-06-07T21:59:17.640Z,9.13
2023-06-07T22:01:44.834Z,9.48
2023-06-07T22:04:12.392Z,9.27
2023-06-07T22:06:39.555Z,9.27
2023-06-07T22:09:06.594Z,8.93
2023-06-07T22:11:34.850Z,9.07
2023-06-07T22:14:03.877Z,10.25
2023-06-07T22:16:35.471Z,10.77
2023-06-07T22:19:02.675Z,9.55
2023-06-07T22:21:31.462Z,9.68
2023-06-07T22:23:59.023Z,9.70
2023-06-07T22:26:30.192Z,10.65
2023-06-07T22:29:01.376Z,10.07
2023-06-07T22:31:37.805Z,10.13
2023-06-07T22:34:09.175Z,10.27
2023-06-07T22:36:43.474Z,9.95
2023-06-07T22:39:13.167Z,9.88
2023-06-07T22:41:41.784Z,10.40
2023-06-07T22:44:10.562Z,9.93
2023-06-07T22:46:38.903Z,11.38
2023-06-07T22:49:12.565Z,9.88
2023-06-07T22:51:42.106Z,9.93
2023-06-07T22:54:09.361Z,10.88
2023-06-07T22:56:36.491Z,10.73
2023-06-07T22:59:03.505Z,10.70
2023-06-07T23:01:30.671Z,10.50
2023-06-07T23:03:58.241Z,10.45
2023-06-07T23:06:34.335Z,10.63
2023-06-07T23:09:02.408Z,10.63
2023-06-07T23:11:30.261Z,10.65
2023-06-07T23:14:00.905Z,11.07
2023-06-07T23:16:29.334Z,10.98
2023-06-07T23:18:58.167Z,10.13
2023-06-07T23:21:26.752Z,9.93
2023-06-07T23:23:54.140Z,10.35
2023-06-07T23:26:21.765Z,10.70
2023-06-07T23:28:48.829Z,11.00
2023-06-07T23:31:16.131Z,10.63
2023-06-07T23:33:43.409Z,11.25
2023-06-07T23:36:14.574Z,11.00
2023-06-07T23:38:41.792Z,10.82
2023-06-07T23:41:09.101Z,11.63
2023-06-07T23:43:36.333Z,10.75
2023-06-07T23:46:04.427Z,11.57
2023-06-07T23:48:31.538Z,10.68
2023-06-07T23:50:58.563Z,10.40
2023-06-07T23:53:25.807Z,10.85
2023-06-07T23:55:54.082Z,11.20
2023-06-07T23:58:21.010Z,11.15
